ENGLEBRIGHT (USACE) (ENG)

Elevation: 551' · YUBA R basin · Operator: US Army Corps of Engineers

Provisional data, subject to change.
Query executed Saturday at 8:18:41   clock

Select a sensor type for a plot of data.
Note: Reservoir Flows are daily averages.

Earlier

Date RES ELE    STORAGE    RES CHG    OUTFLOW    INFLOW    PPT INC   
 FEET   AF   AF   CFS   CFS   INCHES  
07/28/2016 522.57 66422 -424 -- 1426 0.00
07/29/2016 522.87 66657 235 -- 1765 0.00
07/30/2016 523.25 66956 299 -- 1754 0.00
07/31/2016 522.61 66453 -503 -- 1313 0.00
08/01/2016 522.53 66391 -62 -- 1482 0.00
08/02/2016 522.13 66078 -- -- 1348 0.00
08/03/2016 521.21 65363 -715 -- 1145 0.00
08/04/2016 520.74 65001 -362 -- 1317 0.00
08/05/2016 519.75 64242 -759 -- 1101 0.00
08/06/2016 519.16 63792 -450 -- 1266 0.00
08/07/2016 519.26 63868 76 -- 1530 0.00
08/08/2016 519.80 64280 412 -- 1686 0.00
08/09/2016 520.00 64433 153 -- 1554 0.00
08/10/2016 520.45 64778 345 -- 1648 0.00
08/11/2016 520.77 65024 246 -- 1588 0.00
08/12/2016 520.53 64839 -185 -- 1355 0.00
08/13/2016 519.26 63868 -971 -- 922 0.00
08/14/2016 519.39 63967 99 -- 1421 0.00
08/15/2016 520.18 64570 603 -- 1678 0.00
08/16/2016 520.37 64716 146 -- 1426 0.00
08/17/2016 520.38 64724 -7782 -- 1325 0.00
08/18/2016 519.85 64318 -406 -- 1078 0.00
08/19/2016 521.26 65402 1084 -- 1796 0.00
08/20/2016 520.91 65132 -270 -- 1077 0.00
08/21/2016 520.44 64770 -362 -- 989 0.00
08/22/2016 519.60 64127 -643 -- 829 0.00
08/23/2016 518.22 63082 -1045 -- 591 0.00
08/24/2016 519.32 63914 832 -- 1507 0.00
08/25/2016 519.91 64364 450 -- 1263 0.00
08/26/2016 519.61 64135 -229 -- -- 0.00
08/27/2016 -- -- -- -- -- --

Later | Latest

Warning! This data is preliminary and subject to revision.

Show ENG Map | Plot ENG Data | 1 Month ENG Data | Real-Time ENG Data | ENG Info